sensor_id;sensor_type;location;lat;lon;timestamp;P1;durP1;ratioP1;P2;durP2;ratioP2
22752;SDS011;11543;43.144;24.684;2022-07-26T04:23:41;13.90;;;10.50;;
22752;SDS011;11543;43.144;24.684;2022-07-26T04:26:07;13.50;;;10.25;;
22752;SDS011;11543;43.144;24.684;2022-07-26T04:28:32;17.52;;;10.23;;
22752;SDS011;11543;43.144;24.684;2022-07-26T04:30:58;15.15;;;10.68;;
22752;SDS011;11543;43.144;24.684;2022-07-26T04:33:24;12.57;;;10.68;;
22752;SDS011;11543;43.144;24.684;2022-07-26T04:35:49;12.13;;;9.43;;
22752;SDS011;11543;43.144;24.684;2022-07-26T04:38:15;18.30;;;10.23;;
22752;SDS011;11543;43.144;24.684;2022-07-26T04:40:41;14.55;;;10.10;;
22752;SDS011;11543;43.144;24.684;2022-07-26T04:43:06;15.35;;;9.82;;
22752;SDS011;11543;43.144;24.684;2022-07-26T04:45:32;14.93;;;9.93;;
22752;SDS011;11543;43.144;24.684;2022-07-26T04:47:57;14.93;;;10.35;;
22752;SDS011;11543;43.144;24.684;2022-07-26T04:50:23;13.38;;;10.00;;
22752;SDS011;11543;43.144;24.684;2022-07-26T04:52:49;17.63;;;9.75;;
22752;SDS011;11543;43.144;24.684;2022-07-26T04:55:16;13.52;;;9.38;;
22752;SDS011;11543;43.144;24.684;2022-07-26T04:57:43;13.13;;;10.05;;
22752;SDS011;11543;43.144;24.684;2022-07-26T05:00:10;13.80;;;10.23;;
22752;SDS011;11543;43.144;24.684;2022-07-26T05:02:36;17.33;;;10.02;;
22752;SDS011;11543;43.144;24.684;2022-07-26T05:05:03;18.77;;;11.05;;
22752;SDS011;11543;43.144;24.684;2022-07-26T05:07:46;14.75;;;10.18;;
22752;SDS011;11543;43.144;24.684;2022-07-26T05:10:14;15.45;;;10.38;;
22752;SDS011;11543;43.144;24.684;2022-07-26T05:12:40;12.70;;;10.32;;
22752;SDS011;11543;43.144;24.684;2022-07-26T05:15:05;12.60;;;9.88;;
22752;SDS011;11543;43.144;24.684;2022-07-26T05:17:32;14.55;;;9.80;;
22752;SDS011;11543;43.144;24.684;2022-07-26T05:20:18;13.95;;;9.80;;
22752;SDS011;11543;43.144;24.684;2022-07-26T05:22:43;17.52;;;10.35;;
22752;SDS011;11543;43.144;24.684;2022-07-26T05:25:09;15.90;;;10.30;;
22752;SDS011;11543;43.144;24.684;2022-07-26T05:27:35;16.58;;;9.35;;
22752;SDS011;11543;43.144;24.684;2022-07-26T05:30:01;13.48;;;9.93;;
22752;SDS011;11543;43.144;24.684;2022-07-26T05:32:27;11.82;;;9.65;;
22752;SDS011;11543;43.144;24.684;2022-07-26T05:34:52;13.52;;;9.73;;
22752;SDS011;11543;43.144;24.684;2022-07-26T05:37:18;12.20;;;9.00;;
22752;SDS011;11543;43.144;24.684;2022-07-26T05:39:43;12.55;;;9.60;;
22752;SDS011;11543;43.144;24.684;2022-07-26T05:42:09;19.27;;;11.35;;
22752;SDS011;11543;43.144;24.684;2022-07-26T05:44:34;19.30;;;11.00;;
22752;SDS011;11543;43.144;24.684;2022-07-26T05:47:00;22.13;;;13.25;;
22752;SDS011;11543;43.144;24.684;2022-07-26T05:49:25;17.95;;;11.85;;
22752;SDS011;11543;43.144;24.684;2022-07-26T05:51:51;18.10;;;10.68;;
22752;SDS011;11543;43.144;24.684;2022-07-26T05:54:17;16.80;;;11.27;;
22752;SDS011;11543;43.144;24.684;2022-07-26T05:56:45;17.85;;;11.15;;
22752;SDS011;11543;43.144;24.684;2022-07-26T05:59:10;23.02;;;12.50;;
22752;SDS011;11543;43.144;24.684;2022-07-26T06:01:36;24.67;;;13.73;;
22752;SDS011;11543;43.144;24.684;2022-07-26T06:04:01;29.55;;;15.02;;
22752;SDS011;11543;43.144;24.684;2022-07-26T06:06:27;27.95;;;16.38;;
22752;SDS011;11543;43.144;24.684;2022-07-26T06:08:52;31.80;;;16.90;;
22752;SDS011;11543;43.144;24.684;2022-07-26T06:11:18;30.42;;;15.10;;
22752;SDS011;11543;43.144;24.684;2022-07-26T06:13:44;29.65;;;15.20;;
22752;SDS011;11543;43.144;24.684;2022-07-26T06:16:09;23.30;;;12.88;;
22752;SDS011;11543;43.144;24.684;2022-07-26T06:18:41;23.27;;;12.93;;
22752;SDS011;11543;43.144;24.684;2022-07-26T06:21:17;20.38;;;11.40;;
22752;SDS011;11543;43.144;24.684;2022-07-26T06:24:03;14.75;;;9.98;;
22752;SDS011;11543;43.144;24.684;2022-07-26T06:26:29;16.58;;;10.80;;
22752;SDS011;11543;43.144;24.684;2022-07-26T06:28:55;20.88;;;11.98;;
22752;SDS011;11543;43.144;24.684;2022-07-26T06:34:14;15.10;;;9.75;;
22752;SDS011;11543;43.144;24.684;2022-07-26T06:36:49;15.05;;;9.25;;
22752;SDS011;11543;43.144;24.684;2022-07-26T06:39:17;20.75;;;11.27;;
22752;SDS011;11543;43.144;24.684;2022-07-26T06:41:42;20.88;;;12.75;;
22752;SDS011;11543;43.144;24.684;2022-07-26T06:44:08;23.17;;;12.65;;
22752;SDS011;11543;43.144;24.684;2022-07-26T06:50:07;24.27;;;12.68;;
22752;SDS011;11543;43.144;24.684;2022-07-26T06:52:33;30.77;;;15.75;;
22752;SDS011;11543;43.144;24.684;2022-07-26T06:54:59;20.52;;;11.95;;
22752;SDS011;11543;43.144;24.684;2022-07-26T06:57:25;19.00;;;11.40;;
22752;SDS011;11543;43.144;24.684;2022-07-26T06:59:51;10.43;;;8.50;;
22752;SDS011;11543;43.144;24.684;2022-07-26T07:02:34;13.27;;;9.70;;
22752;SDS011;11543;43.144;24.684;2022-07-26T07:04:59;12.02;;;8.85;;
22752;SDS011;11543;43.144;24.684;2022-07-26T07:07:25;10.98;;;8.68;;
22752;SDS011;11543;43.144;24.684;2022-07-26T07:09:51;13.65;;;8.35;;
22752;SDS011;11543;43.144;24.684;2022-07-26T07:12:16;10.82;;;8.32;;
22752;SDS011;11543;43.144;24.684;2022-07-26T07:15:03;12.25;;;7.93;;
22752;SDS011;11543;43.144;24.684;2022-07-26T07:19:59;15.60;;;8.25;;
22752;SDS011;11543;43.144;24.684;2022-07-26T07:22:24;10.88;;;7.80;;
22752;SDS011;11543;43.144;24.684;2022-07-26T07:24:50;12.90;;;8.27;;
22752;SDS011;11543;43.144;24.684;2022-07-26T07:27:15;14.50;;;8.38;;
22752;SDS011;11543;43.144;24.684;2022-07-26T07:29:41;9.95;;;7.20;;
22752;SDS011;11543;43.144;24.684;2022-07-26T07:32:07;14.93;;;7.95;;
22752;SDS011;11543;43.144;24.684;2022-07-26T07:34:32;14.77;;;8.20;;
22752;SDS011;11543;43.144;24.684;2022-07-26T07:36:58;11.18;;;7.68;;
22752;SDS011;11543;43.144;24.684;2022-07-26T07:39:23;11.88;;;7.45;;
22752;SDS011;11543;43.144;24.684;2022-07-26T07:41:49;14.27;;;8.60;;
22752;SDS011;11543;43.144;24.684;2022-07-26T07:44:14;10.93;;;7.13;;
22752;SDS011;11543;43.144;24.684;2022-07-26T07:46:40;8.77;;;6.65;;
22752;SDS011;11543;43.144;24.684;2022-07-26T07:49:06;11.25;;;8.35;;
22752;SDS011;11543;43.144;24.684;2022-07-26T07:51:31;11.88;;;7.22;;
22752;SDS011;11543;43.144;24.684;2022-07-26T07:53:58;8.57;;;6.80;;
22752;SDS011;11543;43.144;24.684;2022-07-26T07:56:23;8.30;;;6.40;;
22752;SDS011;11543;43.144;24.684;2022-07-26T07:58:49;8.85;;;6.45;;
22752;SDS011;11543;43.144;24.684;2022-07-26T08:01:15;13.60;;;7.93;;
22752;SDS011;11543;43.144;24.684;2022-07-26T08:03:40;9.55;;;6.72;;
22752;SDS011;11543;43.144;24.684;2022-07-26T08:06:06;9.10;;;6.57;;
22752;SDS011;11543;43.144;24.684;2022-07-26T08:08:33;8.55;;;6.57;;
22752;SDS011;11543;43.144;24.684;2022-07-26T08:10:59;6.85;;;6.15;;
22752;SDS011;11543;43.144;24.684;2022-07-26T08:13:25;8.52;;;6.47;;
22752;SDS011;11543;43.144;24.684;2022-07-26T08:15:51;8.07;;;6.50;;
22752;SDS011;11543;43.144;24.684;2022-07-26T08:18:19;7.43;;;6.10;;
22752;SDS011;11543;43.144;24.684;2022-07-26T08:20:45;6.47;;;5.68;;
22752;SDS011;11543;43.144;24.684;2022-07-26T08:23:11;10.63;;;7.47;;
22752;SDS011;11543;43.144;24.684;2022-07-26T08:28:37;6.60;;;5.87;;
22752;SDS011;11543;43.144;24.684;2022-07-26T08:31:04;8.23;;;5.75;;
22752;SDS011;11543;43.144;24.684;2022-07-26T08:33:29;9.00;;;5.88;;
22752;SDS011;11543;43.144;24.684;2022-07-26T08:35:55;7.00;;;5.85;;
22752;SDS011;11543;43.144;24.684;2022-07-26T08:38:21;7.57;;;5.53;;
22752;SDS011;11543;43.144;24.684;2022-07-26T08:40:46;9.05;;;5.88;;
22752;SDS011;11543;43.144;24.684;2022-07-26T08:43:12;8.15;;;5.72;;
22752;SDS011;11543;43.144;24.684;2022-07-26T08:45:37;7.53;;;5.47;;
22752;SDS011;11543;43.144;24.684;2022-07-26T08:48:03;7.93;;;5.30;;
22752;SDS011;11543;43.144;24.684;2022-07-26T08:50:29;7.63;;;5.95;;
22752;SDS011;11543;43.144;24.684;2022-07-26T08:52:58;8.68;;;5.78;;
22752;SDS011;11543;43.144;24.684;2022-07-26T08:57:50;7.90;;;5.38;;
22752;SDS011;11543;43.144;24.684;2022-07-26T09:00:17;7.00;;;5.13;;
22752;SDS011;11543;43.144;24.684;2022-07-26T09:02:54;8.32;;;5.47;;
22752;SDS011;11543;43.144;24.684;2022-07-26T09:05:31;6.57;;;5.10;;
22752;SDS011;11543;43.144;24.684;2022-07-26T09:08:20;6.85;;;5.15;;
22752;SDS011;11543;43.144;24.684;2022-07-26T09:10:55;7.70;;;5.07;;
22752;SDS011;11543;43.144;24.684;2022-07-26T09:13:24;6.55;;;5.40;;
22752;SDS011;11543;43.144;24.684;2022-07-26T09:16:07;8.40;;;5.70;;
22752;SDS011;11543;43.144;24.684;2022-07-26T09:18:34;8.70;;;5.68;;
22752;SDS011;11543;43.144;24.684;2022-07-26T09:20:59;7.00;;;5.70;;
22752;SDS011;11543;43.144;24.684;2022-07-26T09:23:26;6.53;;;5.65;;
22752;SDS011;11543;43.144;24.684;2022-07-26T09:26:03;8.52;;;5.50;;
22752;SDS011;11543;43.144;24.684;2022-07-26T09:28:29;8.38;;;4.88;;
22752;SDS011;11543;43.144;24.684;2022-07-26T09:31:00;7.90;;;5.00;;
22752;SDS011;11543;43.144;24.684;2022-07-26T09:33:46;6.30;;;5.60;;
22752;SDS011;11543;43.144;24.684;2022-07-26T09:36:13;7.68;;;5.07;;
22752;SDS011;11543;43.144;24.684;2022-07-26T09:38:50;7.53;;;5.03;;
22752;SDS011;11543;43.144;24.684;2022-07-26T09:41:17;5.43;;;4.68;;
22752;SDS011;11543;43.144;24.684;2022-07-26T09:44:01;9.52;;;5.15;;
22752;SDS011;11543;43.144;24.684;2022-07-26T09:46:31;8.32;;;7.00;;
22752;SDS011;11543;43.144;24.684;2022-07-26T09:49:18;9.25;;;7.05;;
22752;SDS011;11543;43.144;24.684;2022-07-26T09:51:46;9.35;;;6.78;;
22752;SDS011;11543;43.144;24.684;2022-07-26T09:54:18;11.23;;;6.03;;
22752;SDS011;11543;43.144;24.684;2022-07-26T09:56:53;7.30;;;5.75;;
22752;SDS011;11543;43.144;24.684;2022-07-26T09:59:20;9.27;;;5.53;;
22752;SDS011;11543;43.144;24.684;2022-07-26T10:01:46;8.00;;;5.28;;
22752;SDS011;11543;43.144;24.684;2022-07-26T10:04:13;7.15;;;4.88;;
22752;SDS011;11543;43.144;24.684;2022-07-26T10:06:39;7.28;;;4.80;;
22752;SDS011;11543;43.144;24.684;2022-07-26T10:12:02;7.50;;;4.80;;
22752;SDS011;11543;43.144;24.684;2022-07-26T10:19:54;9.25;;;6.00;;
22752;SDS011;11543;43.144;24.684;2022-07-26T10:22:27;5.68;;;4.80;;
22752;SDS011;11543;43.144;24.684;2022-07-26T10:24:56;6.72;;;4.75;;
22752;SDS011;11543;43.144;24.684;2022-07-26T10:27:42;6.38;;;4.60;;
22752;SDS011;11543;43.144;24.684;2022-07-26T10:35:37;5.57;;;4.70;;
22752;SDS011;11543;43.144;24.684;2022-07-26T10:38:11;5.60;;;4.40;;
22752;SDS011;11543;43.144;24.684;2022-07-26T10:40:37;5.38;;;4.45;;
22752;SDS011;11543;43.144;24.684;2022-07-26T10:43:19;6.28;;;4.20;;
22752;SDS011;11543;43.144;24.684;2022-07-26T10:45:47;8.70;;;4.72;;
22752;SDS011;11543;43.144;24.684;2022-07-26T10:48:34;8.77;;;4.30;;
22752;SDS011;11543;43.144;24.684;2022-07-26T10:50:59;7.47;;;4.53;;
22752;SDS011;11543;43.144;24.684;2022-07-26T10:53:25;5.38;;;4.20;;
22752;SDS011;11543;43.144;24.684;2022-07-26T10:55:52;5.30;;;4.50;;
22752;SDS011;11543;43.144;24.684;2022-07-26T10:58:20;5.35;;;4.40;;
22752;SDS011;11543;43.144;24.684;2022-07-26T11:00:57;5.82;;;4.32;;
22752;SDS011;11543;43.144;24.684;2022-07-26T11:03:35;5.43;;;4.35;;
22752;SDS011;11543;43.144;24.684;2022-07-26T11:06:12;5.22;;;4.30;;
22752;SDS011;11543;43.144;24.684;2022-07-26T11:08:43;5.25;;;4.07;;
22752;SDS011;11543;43.144;24.684;2022-07-26T11:11:10;7.43;;;4.38;;
22752;SDS011;11543;43.144;24.684;2022-07-26T11:13:36;5.60;;;4.13;;
22752;SDS011;11543;43.144;24.684;2022-07-26T11:16:05;5.07;;;4.40;;
22752;SDS011;11543;43.144;24.684;2022-07-26T11:18:33;7.93;;;4.35;;
22752;SDS011;11543;43.144;24.684;2022-07-26T11:23:47;8.80;;;4.43;;
22752;SDS011;11543;43.144;24.684;2022-07-26T11:29:04;5.28;;;4.43;;
22752;SDS011;11543;43.144;24.684;2022-07-26T11:31:40;5.78;;;4.30;;
22752;SDS011;11543;43.144;24.684;2022-07-26T11:34:15;5.53;;;4.32;;
22752;SDS011;11543;43.144;24.684;2022-07-26T11:36:46;5.18;;;4.15;;
22752;SDS011;11543;43.144;24.684;2022-07-26T11:42:18;4.72;;;4.15;;
22752;SDS011;11543;43.144;24.684;2022-07-26T11:44:46;5.10;;;4.60;;
22752;SDS011;11543;43.144;24.684;2022-07-26T11:47:13;5.38;;;4.60;;
22752;SDS011;11543;43.144;24.684;2022-07-26T11:49:46;5.07;;;4.57;;
22752;SDS011;11543;43.144;24.684;2022-07-26T11:52:12;7.07;;;4.43;;
22752;SDS011;11543;43.144;24.684;2022-07-26T11:54:48;6.65;;;4.50;;
22752;SDS011;11543;43.144;24.684;2022-07-26T11:57:15;9.32;;;4.97;;
22752;SDS011;11543;43.144;24.684;2022-07-26T11:59:42;8.18;;;5.32;;
22752;SDS011;11543;43.144;24.684;2022-07-26T12:02:10;9.60;;;6.55;;
22752;SDS011;11543;43.144;24.684;2022-07-26T12:04:39;10.45;;;5.22;;
22752;SDS011;11543;43.144;24.684;2022-07-26T12:07:10;7.85;;;5.95;;
22752;SDS011;11543;43.144;24.684;2022-07-26T12:09:50;8.80;;;4.72;;
22752;SDS011;11543;43.144;24.684;2022-07-26T12:14:59;7.40;;;4.93;;
22752;SDS011;11543;43.144;24.684;2022-07-26T12:17:26;9.57;;;5.00;;
22752;SDS011;11543;43.144;24.684;2022-07-26T12:19:53;6.85;;;4.88;;
22752;SDS011;11543;43.144;24.684;2022-07-26T12:22:19;6.63;;;4.60;;
22752;SDS011;11543;43.144;24.684;2022-07-26T12:24:55;6.03;;;4.82;;
22752;SDS011;11543;43.144;24.684;2022-07-26T12:27:23;5.90;;;4.78;;
22752;SDS011;11543;43.144;24.684;2022-07-26T12:29:50;9.38;;;4.60;;
22752;SDS011;11543;43.144;24.684;2022-07-26T12:32:30;7.00;;;4.50;;
22752;SDS011;11543;43.144;24.684;2022-07-26T12:35:05;5.72;;;5.05;;
22752;SDS011;11543;43.144;24.684;2022-07-26T12:37:33;4.63;;;4.22;;
22752;SDS011;11543;43.144;24.684;2022-07-26T12:40:03;5.60;;;4.10;;
22752;SDS011;11543;43.144;24.684;2022-07-26T12:42:30;6.22;;;4.20;;
22752;SDS011;11543;43.144;24.684;2022-07-26T12:45:20;10.95;;;5.05;;
22752;SDS011;11543;43.144;24.684;2022-07-26T12:47:48;9.80;;;5.60;;
22752;SDS011;11543;43.144;24.684;2022-07-26T12:50:16;6.68;;;4.80;;
22752;SDS011;11543;43.144;24.684;2022-07-26T12:52:44;7.85;;;5.60;;
22752;SDS011;11543;43.144;24.684;2022-07-26T12:55:11;6.25;;;4.72;;
22752;SDS011;11543;43.144;24.684;2022-07-26T12:57:40;8.98;;;4.70;;
22752;SDS011;11543;43.144;24.684;2022-07-26T13:00:07;5.32;;;4.50;;
22752;SDS011;11543;43.144;24.684;2022-07-26T13:02:36;11.80;;;4.80;;
22752;SDS011;11543;43.144;24.684;2022-07-26T13:05:02;5.50;;;4.60;;
22752;SDS011;11543;43.144;24.684;2022-07-26T13:07:28;6.32;;;4.22;;
22752;SDS011;11543;43.144;24.684;2022-07-26T13:09:54;5.30;;;4.60;;
22752;SDS011;11543;43.144;24.684;2022-07-26T13:12:26;5.82;;;4.90;;
22752;SDS011;11543;43.144;24.684;2022-07-26T13:14:52;7.57;;;5.05;;
22752;SDS011;11543;43.144;24.684;2022-07-26T13:17:17;5.38;;;4.68;;
22752;SDS011;11543;43.144;24.684;2022-07-26T13:19:43;5.68;;;4.65;;
22752;SDS011;11543;43.144;24.684;2022-07-26T13:22:08;6.88;;;4.90;;
22752;SDS011;11543;43.144;24.684;2022-07-26T13:24:35;5.28;;;4.57;;
22752;SDS011;11543;43.144;24.684;2022-07-26T13:27:03;5.20;;;4.60;;
22752;SDS011;11543;43.144;24.684;2022-07-26T13:29:31;5.50;;;4.85;;
22752;SDS011;11543;43.144;24.684;2022-07-26T13:31:57;7.78;;;4.60;;
22752;SDS011;11543;43.144;24.684;2022-07-26T13:34:24;5.22;;;4.57;;
22752;SDS011;11543;43.144;24.684;2022-07-26T13:36:50;5.30;;;4.43;;
22752;SDS011;11543;43.144;24.684;2022-07-26T13:39:16;4.82;;;4.30;;
22752;SDS011;11543;43.144;24.684;2022-07-26T13:41:45;8.52;;;4.85;;
22752;SDS011;11543;43.144;24.684;2022-07-26T13:44:10;5.63;;;4.65;;
22752;SDS011;11543;43.144;24.684;2022-07-26T13:46:36;4.90;;;4.40;;
22752;SDS011;11543;43.144;24.684;2022-07-26T13:49:02;6.60;;;4.72;;
22752;SDS011;11543;43.144;24.684;2022-07-26T13:51:31;6.63;;;4.35;;
22752;SDS011;11543;43.144;24.684;2022-07-26T13:54:17;4.35;;;3.95;;
22752;SDS011;11543;43.144;24.684;2022-07-26T13:56:44;6.47;;;4.30;;
22752;SDS011;11543;43.144;24.684;2022-07-26T13:59:11;5.55;;;4.65;;
22752;SDS011;11543;43.144;24.684;2022-07-26T14:01:37;5.55;;;4.30;;
22752;SDS011;11543;43.144;24.684;2022-07-26T14:04:04;4.82;;;4.20;;
22752;SDS011;11543;43.144;24.684;2022-07-26T14:06:30;7.25;;;4.10;;
22752;SDS011;11543;43.144;24.684;2022-07-26T14:08:56;6.22;;;3.97;;
22752;SDS011;11543;43.144;24.684;2022-07-26T14:11:23;6.28;;;4.05;;
22752;SDS011;11543;43.144;24.684;2022-07-26T14:13:48;7.00;;;4.18;;
22752;SDS011;11543;43.144;24.684;2022-07-26T14:16:14;5.10;;;4.25;;
22752;SDS011;11543;43.144;24.684;2022-07-26T14:18:39;5.88;;;4.45;;
22752;SDS011;11543;43.144;24.684;2022-07-26T14:21:05;5.00;;;4.03;;
22752;SDS011;11543;43.144;24.684;2022-07-26T14:23:30;5.57;;;4.60;;
22752;SDS011;11543;43.144;24.684;2022-07-26T14:25:55;4.85;;;4.38;;
22752;SDS011;11543;43.144;24.684;2022-07-26T14:28:21;6.00;;;4.47;;
22752;SDS011;11543;43.144;24.684;2022-07-26T14:30:47;5.72;;;4.65;;
22752;SDS011;11543;43.144;24.684;2022-07-26T14:33:12;6.63;;;4.57;;
22752;SDS011;11543;43.144;24.684;2022-07-26T14:35:38;7.32;;;4.65;;
22752;SDS011;11543;43.144;24.684;2022-07-26T14:38:05;5.20;;;4.68;;
22752;SDS011;11543;43.144;24.684;2022-07-26T14:40:32;7.35;;;4.93;;
22752;SDS011;11543;43.144;24.684;2022-07-26T14:42:57;6.50;;;4.97;;
22752;SDS011;11543;43.144;24.684;2022-07-26T14:45:23;6.28;;;4.65;;
22752;SDS011;11543;43.144;24.684;2022-07-26T14:47:48;6.78;;;4.80;;
22752;SDS011;11543;43.144;24.684;2022-07-26T14:50:14;6.05;;;4.72;;
22752;SDS011;11543;43.144;24.684;2022-07-26T14:52:42;6.05;;;5.03;;
22752;SDS011;11543;43.144;24.684;2022-07-26T14:55:12;5.70;;;4.80;;
22752;SDS011;11543;43.144;24.684;2022-07-26T14:57:38;9.80;;;4.95;;
22752;SDS011;11543;43.144;24.684;2022-07-26T15:00:13;5.60;;;4.70;;
22752;SDS011;11543;43.144;24.684;2022-07-26T15:02:42;5.82;;;5.03;;
22752;SDS011;11543;43.144;24.684;2022-07-26T15:05:14;5.20;;;4.70;;
22752;SDS011;11543;43.144;24.684;2022-07-26T16:26:14;10.85;;;5.80;;
22752;SDS011;11543;43.144;24.684;2022-07-26T16:28:44;9.60;;;5.75;;
22752;SDS011;11543;43.144;24.684;2022-07-26T16:31:26;6.72;;;5.50;;
22752;SDS011;11543;43.144;24.684;2022-07-26T16:33:51;9.52;;;5.80;;
22752;SDS011;11543;43.144;24.684;2022-07-26T16:36:17;5.70;;;5.20;;
22752;SDS011;11543;43.144;24.684;2022-07-26T16:38:42;9.27;;;5.60;;
22752;SDS011;11543;43.144;24.684;2022-07-26T16:41:08;7.65;;;5.85;;
22752;SDS011;11543;43.144;24.684;2022-07-26T16:43:34;8.30;;;5.43;;
22752;SDS011;11543;43.144;24.684;2022-07-26T16:45:59;6.35;;;5.75;;
22752;SDS011;11543;43.144;24.684;2022-07-26T16:55:09;7.32;;;6.00;;
22752;SDS011;11543;43.144;24.684;2022-07-26T17:00:57;7.00;;;5.50;;
22752;SDS011;11543;43.144;24.684;2022-07-26T17:06:44;5.90;;;5.30;;
22752;SDS011;11543;43.144;24.684;2022-07-26T17:12:31;6.32;;;5.72;;
22752;SDS011;11543;43.144;24.684;2022-07-26T17:14:57;6.50;;;5.80;;
22752;SDS011;11543;43.144;24.684;2022-07-26T17:17:24;8.48;;;6.40;;
22752;SDS011;11543;43.144;24.684;2022-07-26T17:19:50;6.53;;;5.80;;
22752;SDS011;11543;43.144;24.684;2022-07-26T17:22:16;7.35;;;5.90;;
22752;SDS011;11543;43.144;24.684;2022-07-26T17:24:42;7.38;;;5.97;;
22752;SDS011;11543;43.144;24.684;2022-07-26T17:27:08;8.05;;;6.18;;
22752;SDS011;11543;43.144;24.684;2022-07-26T17:29:33;8.05;;;5.95;;
22752;SDS011;11543;43.144;24.684;2022-07-26T17:31:59;10.75;;;6.13;;
22752;SDS011;11543;43.144;24.684;2022-07-26T17:34:24;9.27;;;6.20;;
22752;SDS011;11543;43.144;24.684;2022-07-26T17:36:56;7.97;;;5.97;;
22752;SDS011;11543;43.144;24.684;2022-07-26T17:39:23;6.68;;;5.95;;
22752;SDS011;11543;43.144;24.684;2022-07-26T17:41:49;9.35;;;6.22;;
22752;SDS011;11543;43.144;24.684;2022-07-26T17:44:14;11.48;;;6.53;;
22752;SDS011;11543;43.144;24.684;2022-07-26T17:46:40;8.40;;;6.25;;
22752;SDS011;11543;43.144;24.684;2022-07-26T17:49:06;9.73;;;6.22;;
22752;SDS011;11543;43.144;24.684;2022-07-26T17:51:31;8.18;;;6.25;;
22752;SDS011;11543;43.144;24.684;2022-07-26T17:53:57;7.97;;;6.40;;
22752;SDS011;11543;43.144;24.684;2022-07-26T17:56:22;8.85;;;6.53;;
22752;SDS011;11543;43.144;24.684;2022-07-26T17:58:48;7.63;;;6.75;;
22752;SDS011;11543;43.144;24.684;2022-07-26T18:01:13;7.97;;;6.82;;
22752;SDS011;11543;43.144;24.684;2022-07-26T18:03:39;7.57;;;6.47;;
22752;SDS011;11543;43.144;24.684;2022-07-26T18:06:04;9.45;;;7.20;;
22752;SDS011;11543;43.144;24.684;2022-07-26T18:08:30;8.52;;;7.60;;
22752;SDS011;11543;43.144;24.684;2022-07-26T18:10:56;10.38;;;7.78;;
22752;SDS011;11543;43.144;24.684;2022-07-26T18:13:22;11.63;;;8.00;;
22752;SDS011;11543;43.144;24.684;2022-07-26T18:15:51;9.07;;;7.72;;
22752;SDS011;11543;43.144;24.684;2022-07-26T18:18:17;10.85;;;7.20;;
22752;SDS011;11543;43.144;24.684;2022-07-26T18:20:43;8.60;;;7.07;;
22752;SDS011;11543;43.144;24.684;2022-07-26T18:23:09;9.65;;;7.00;;
22752;SDS011;11543;43.144;24.684;2022-07-26T18:25:35;13.88;;;8.10;;
22752;SDS011;11543;43.144;24.684;2022-07-26T18:28:01;9.70;;;6.85;;
22752;SDS011;11543;43.144;24.684;2022-07-26T18:30:26;10.05;;;6.88;;
22752;SDS011;11543;43.144;24.684;2022-07-26T18:32:56;10.30;;;7.90;;
22752;SDS011;11543;43.144;24.684;2022-07-26T18:35:22;9.13;;;7.47;;
22752;SDS011;11543;43.144;24.684;2022-07-26T18:37:48;8.00;;;7.20;;
22752;SDS011;11543;43.144;24.684;2022-07-26T18:40:17;10.00;;;6.93;;
22752;SDS011;11543;43.144;24.684;2022-07-26T18:42:43;13.23;;;7.05;;
22752;SDS011;11543;43.144;24.684;2022-07-26T18:45:09;8.48;;;7.20;;
22752;SDS011;11543;43.144;24.684;2022-07-26T18:47:34;9.82;;;6.82;;
22752;SDS011;11543;43.144;24.684;2022-07-26T18:50:00;10.63;;;7.00;;
22752;SDS011;11543;43.144;24.684;2022-07-26T18:52:26;10.48;;;7.30;;
22752;SDS011;11543;43.144;24.684;2022-07-26T18:54:51;9.55;;;7.00;;
22752;SDS011;11543;43.144;24.684;2022-07-26T18:57:17;10.05;;;7.10;;
22752;SDS011;11543;43.144;24.684;2022-07-26T18:59:42;7.97;;;6.65;;
22752;SDS011;11543;43.144;24.684;2022-07-26T19:02:08;11.57;;;7.05;;
22752;SDS011;11543;43.144;24.684;2022-07-26T19:04:33;23.13;;;15.23;;
22752;SDS011;11543;43.144;24.684;2022-07-26T19:06:59;45.33;;;27.08;;
22752;SDS011;11543;43.144;24.684;2022-07-26T19:09:24;33.80;;;20.23;;
22752;SDS011;11543;43.144;24.684;2022-07-26T19:11:50;23.50;;;15.73;;
22752;SDS011;11543;43.144;24.684;2022-07-26T19:14:15;17.38;;;11.88;;
22752;SDS011;11543;43.144;24.684;2022-07-26T19:16:41;15.98;;;9.52;;
22752;SDS011;11543;43.144;24.684;2022-07-26T19:19:06;13.77;;;9.10;;
22752;SDS011;11543;43.144;24.684;2022-07-26T19:21:32;11.88;;;8.50;;
22752;SDS011;11543;43.144;24.684;2022-07-26T19:23:57;9.57;;;6.97;;
22752;SDS011;11543;43.144;24.684;2022-07-26T19:26:22;8.48;;;7.32;;
22752;SDS011;11543;43.144;24.684;2022-07-26T19:28:48;11.13;;;7.53;;
22752;SDS011;11543;43.144;24.684;2022-07-26T19:31:14;9.25;;;7.10;;
22752;SDS011;11543;43.144;24.684;2022-07-26T19:33:40;8.40;;;7.18;;
22752;SDS011;11543;43.144;24.684;2022-07-26T19:36:06;8.90;;;7.30;;
22752;SDS011;11543;43.144;24.684;2022-07-26T19:38:31;7.65;;;6.70;;
22752;SDS011;11543;43.144;24.684;2022-07-26T19:40:57;7.70;;;6.90;;
22752;SDS011;11543;43.144;24.684;2022-07-26T19:43:23;10.15;;;6.82;;
22752;SDS011;11543;43.144;24.684;2022-07-26T19:45:48;8.38;;;6.90;;
22752;SDS011;11543;43.144;24.684;2022-07-26T19:48:14;7.68;;;6.72;;
22752;SDS011;11543;43.144;24.684;2022-07-26T19:50:40;16.27;;;7.28;;
22752;SDS011;11543;43.144;24.684;2022-07-26T19:53:05;13.40;;;7.20;;
22752;SDS011;11543;43.144;24.684;2022-07-26T19:55:32;14.95;;;7.53;;
22752;SDS011;11543;43.144;24.684;2022-07-26T19:57:57;18.65;;;7.15;;
22752;SDS011;11543;43.144;24.684;2022-07-26T20:00:23;12.70;;;7.40;;
22752;SDS011;11543;43.144;24.684;2022-07-26T20:02:48;11.43;;;7.22;;
22752;SDS011;11543;43.144;24.684;2022-07-26T20:05:13;12.25;;;7.07;;
22752;SDS011;11543;43.144;24.684;2022-07-26T20:07:39;8.82;;;6.70;;
22752;SDS011;11543;43.144;24.684;2022-07-26T20:10:05;8.52;;;7.13;;
22752;SDS011;11543;43.144;24.684;2022-07-26T20:12:31;9.60;;;7.47;;
22752;SDS011;11543;43.144;24.684;2022-07-26T20:15:01;11.38;;;6.90;;
22752;SDS011;11543;43.144;24.684;2022-07-26T20:17:26;14.25;;;7.43;;
22752;SDS011;11543;43.144;24.684;2022-07-26T20:19:54;11.95;;;7.90;;
22752;SDS011;11543;43.144;24.684;2022-07-26T20:22:20;12.00;;;7.88;;
22752;SDS011;11543;43.144;24.684;2022-07-26T20:24:48;9.57;;;7.50;;
22752;SDS011;11543;43.144;24.684;2022-07-26T20:27:19;10.95;;;7.28;;
22752;SDS011;11543;43.144;24.684;2022-07-26T20:29:44;9.38;;;7.55;;
22752;SDS011;11543;43.144;24.684;2022-07-26T20:32:10;11.88;;;7.03;;
22752;SDS011;11543;43.144;24.684;2022-07-26T20:34:35;7.40;;;6.20;;
22752;SDS011;11543;43.144;24.684;2022-07-26T20:37:01;7.82;;;6.78;;
22752;SDS011;11543;43.144;24.684;2022-07-26T20:39:26;8.75;;;7.53;;
22752;SDS011;11543;43.144;24.684;2022-07-26T20:41:53;8.52;;;7.00;;
22752;SDS011;11543;43.144;24.684;2022-07-26T20:44:18;10.75;;;7.10;;
22752;SDS011;11543;43.144;24.684;2022-07-26T20:46:44;8.77;;;6.97;;
22752;SDS011;11543;43.144;24.684;2022-07-26T20:49:09;8.48;;;7.45;;
22752;SDS011;11543;43.144;24.684;2022-07-26T20:51:36;10.25;;;6.97;;
22752;SDS011;11543;43.144;24.684;2022-07-26T20:54:02;8.60;;;6.72;;
22752;SDS011;11543;43.144;24.684;2022-07-26T20:56:28;8.45;;;7.30;;
22752;SDS011;11543;43.144;24.684;2022-07-26T20:58:53;9.75;;;7.18;;
22752;SDS011;11543;43.144;24.684;2022-07-26T21:01:19;9.52;;;6.95;;
22752;SDS011;11543;43.144;24.684;2022-07-26T21:03:44;9.85;;;7.28;;
22752;SDS011;11543;43.144;24.684;2022-07-26T21:06:10;10.90;;;6.90;;
22752;SDS011;11543;43.144;24.684;2022-07-26T21:08:35;8.68;;;7.22;;